sensor_id;sensor_type;location;lat;lon;timestamp;pressure;altitude;pressure_sealevel;temperature;humidity
9525;BME280;15940;48.734;9.112;2023-05-10T00:02:06;95927.31;;;12.75;100.00
9525;BME280;15940;48.734;9.112;2023-05-10T00:04:33;95931.09;;;12.72;100.00
9525;BME280;15940;48.734;9.112;2023-05-10T00:07:00;95931.38;;;12.68;100.00
9525;BME280;15940;48.734;9.112;2023-05-10T00:09:27;95940.63;;;12.59;99.58
9525;BME280;15940;48.734;9.112;2023-05-10T00:11:54;95926.91;;;12.52;99.94
9525;BME280;15940;48.734;9.112;2023-05-10T00:14:21;95932.19;;;12.44;99.41
9525;BME280;15940;48.734;9.112;2023-05-10T00:16:49;95930.41;;;12.28;98.09
9525;BME280;15940;48.734;9.112;2023-05-10T00:19:16;95931.72;;;12.21;99.02
9525;BME280;15940;48.734;9.112;2023-05-10T00:21:43;95929.31;;;12.18;99.28
9525;BME280;15940;48.734;9.112;2023-05-10T00:24:10;95940.81;;;12.05;98.84
9525;BME280;15940;48.734;9.112;2023-05-10T00:26:37;95931.34;;;12.12;100.00
9525;BME280;15940;48.734;9.112;2023-05-10T00:29:04;95938.38;;;12.01;98.71
9525;BME280;15940;48.734;9.112;2023-05-10T00:31:30;95941.88;;;11.96;98.83
9525;BME280;15940;48.734;9.112;2023-05-10T00:33:59;95929.06;;;11.97;99.14
9525;BME280;15940;48.734;9.112;2023-05-10T00:36:26;95928.38;;;11.91;98.73
9525;BME280;15940;48.734;9.112;2023-05-10T00:38:53;95931.16;;;11.85;98.89
9525;BME280;15940;48.734;9.112;2023-05-10T00:41:20;95938.09;;;11.81;98.23
9525;BME280;15940;48.734;9.112;2023-05-10T00:43:47;95931.91;;;11.86;100.00
9525;BME280;15940;48.734;9.112;2023-05-10T00:46:15;95931.66;;;11.84;98.83
9525;BME280;15940;48.734;9.112;2023-05-10T00:48:43;95940.53;;;11.84;99.65
9525;BME280;15940;48.734;9.112;2023-05-10T00:51:13;95948.47;;;11.77;99.09
9525;BME280;15940;48.734;9.112;2023-05-10T00:53:40;95950.94;;;11.74;98.84
9525;BME280;15940;48.734;9.112;2023-05-10T00:56:08;95941.13;;;11.71;99.35
9525;BME280;15940;48.734;9.112;2023-05-10T00:58:35;95948.53;;;11.71;99.14
9525;BME280;15940;48.734;9.112;2023-05-10T01:01:01;95954.25;;;11.67;98.70
9525;BME280;15940;48.734;9.112;2023-05-10T01:03:29;95956.50;;;11.63;98.97
9525;BME280;15940;48.734;9.112;2023-05-10T01:05:56;95964.13;;;11.65;99.71
9525;BME280;15940;48.734;9.112;2023-05-10T01:08:24;95957.50;;;11.60;98.85
9525;BME280;15940;48.734;9.112;2023-05-10T01:10:52;95958.69;;;11.65;99.09
9525;BME280;15940;48.734;9.112;2023-05-10T01:13:30;95960.59;;;11.76;100.00
9525;BME280;15940;48.734;9.112;2023-05-10T01:15:58;95954.38;;;11.81;100.00
9525;BME280;15940;48.734;9.112;2023-05-10T01:18:28;95959.84;;;11.75;99.04
9525;BME280;15940;48.734;9.112;2023-05-10T01:21:08;95959.84;;;11.75;99.37
9525;BME280;15940;48.734;9.112;2023-05-10T01:27:07;95965.75;;;11.73;99.23
9525;BME280;15940;48.734;9.112;2023-05-10T01:30:15;95976.91;;;11.70;99.23
9525;BME280;15940;48.734;9.112;2023-05-10T01:32:53;95979.81;;;11.78;100.00
9525;BME280;15940;48.734;9.112;2023-05-10T01:35:29;95970.16;;;11.82;100.00
9525;BME280;15940;48.734;9.112;2023-05-10T01:38:07;95977.50;;;11.87;100.00
9525;BME280;15940;48.734;9.112;2023-05-10T01:40:54;95975.78;;;11.84;100.00
9525;BME280;15940;48.734;9.112;2023-05-10T01:43:28;95975.31;;;11.86;100.00
9525;BME280;15940;48.734;9.112;2023-05-10T01:46:02;95975.03;;;11.89;100.00
9525;BME280;15940;48.734;9.112;2023-05-10T01:48:38;95989.88;;;11.83;99.89
9525;BME280;15940;48.734;9.112;2023-05-10T01:51:09;95982.28;;;11.76;99.91
9525;BME280;15940;48.734;9.112;2023-05-10T01:53:38;95990.13;;;11.79;100.00
9525;BME280;15940;48.734;9.112;2023-05-10T01:56:06;95980.50;;;11.84;100.00
9525;BME280;15940;48.734;9.112;2023-05-10T01:58:36;95983.44;;;11.86;100.00
9525;BME280;15940;48.734;9.112;2023-05-10T02:01:06;95986.16;;;11.86;100.00
9525;BME280;15940;48.734;9.112;2023-05-10T02:03:34;95993.63;;;11.80;100.00
9525;BME280;15940;48.734;9.112;2023-05-10T02:06:05;95999.25;;;11.82;100.00
9525;BME280;15940;48.734;9.112;2023-05-10T02:08:34;95996.78;;;11.84;100.00
9525;BME280;15940;48.734;9.112;2023-05-10T02:11:03;95996.50;;;11.87;100.00
9525;BME280;15940;48.734;9.112;2023-05-10T02:13:32;95989.38;;;11.84;100.00
9525;BME280;15940;48.734;9.112;2023-05-10T02:16:02;95989.88;;;11.83;100.00
9525;BME280;15940;48.734;9.112;2023-05-10T02:18:30;95997.03;;;11.86;100.00
9525;BME280;15940;48.734;9.112;2023-05-10T02:20:58;95997.97;;;11.88;100.00
9525;BME280;15940;48.734;9.112;2023-05-10T02:23:29;96000.97;;;11.85;100.00
9525;BME280;15940;48.734;9.112;2023-05-10T02:25:57;96004.19;;;11.83;100.00
9525;BME280;15940;48.734;9.112;2023-05-10T02:28:26;96009.13;;;11.79;99.56
9525;BME280;15940;48.734;9.112;2023-05-10T02:30:55;96006.19;;;11.77;99.93
9525;BME280;15940;48.734;9.112;2023-05-10T02:33:22;96015.31;;;11.80;99.83
9525;BME280;15940;48.734;9.112;2023-05-10T02:35:51;96015.81;;;11.78;99.61
9525;BME280;15940;48.734;9.112;2023-05-10T02:38:19;96011.84;;;11.79;99.86
9525;BME280;15940;48.734;9.112;2023-05-10T02:40:48;96016.00;;;11.86;100.00
9525;BME280;15940;48.734;9.112;2023-05-10T02:43:17;96021.94;;;11.84;99.71
9525;BME280;15940;48.734;9.112;2023-05-10T02:45:47;96027.38;;;11.79;99.54
9525;BME280;15940;48.734;9.112;2023-05-10T02:48:15;96022.47;;;11.77;99.57
9525;BME280;15940;48.734;9.112;2023-05-10T02:50:44;96013.81;;;11.79;99.94
9525;BME280;15940;48.734;9.112;2023-05-10T02:53:16;96022.97;;;11.76;99.37
9525;BME280;15940;48.734;9.112;2023-05-10T02:55:52;96014.13;;;11.75;99.41
9525;BME280;15940;48.734;9.112;2023-05-10T02:58:20;96017.81;;;11.72;100.00
9525;BME280;15940;48.734;9.112;2023-05-10T03:00:48;96017.38;;;11.68;99.29
9525;BME280;15940;48.734;9.112;2023-05-10T03:03:15;96020.34;;;11.64;99.31
9525;BME280;15940;48.734;9.112;2023-05-10T03:05:41;96015.66;;;11.65;99.24
9525;BME280;15940;48.734;9.112;2023-05-10T03:08:08;96023.78;;;11.65;99.52
9525;BME280;15940;48.734;9.112;2023-05-10T03:10:44;96034.94;;;11.61;99.83
9525;BME280;15940;48.734;9.112;2023-05-10T03:13:25;96038.56;;;11.69;99.96
9525;BME280;15940;48.734;9.112;2023-05-10T03:16:01;96035.13;;;11.69;99.86
9525;BME280;15940;48.734;9.112;2023-05-10T03:18:40;96036.81;;;11.72;100.00
9525;BME280;15940;48.734;9.112;2023-05-10T03:21:11;96030.13;;;11.73;100.00
9525;BME280;15940;48.734;9.112;2023-05-10T03:23:43;96035.06;;;11.74;100.00
9525;BME280;15940;48.734;9.112;2023-05-10T03:26:20;96036.25;;;11.79;99.91
9525;BME280;15940;48.734;9.112;2023-05-10T03:28:51;96031.38;;;11.72;99.46
9525;BME280;15940;48.734;9.112;2023-05-10T03:31:19;96033.66;;;11.68;99.18
9525;BME280;15940;48.734;9.112;2023-05-10T03:33:46;96038.84;;;11.66;99.13
9525;BME280;15940;48.734;9.112;2023-05-10T03:36:14;96036.41;;;11.62;99.26
9525;BME280;15940;48.734;9.112;2023-05-10T03:38:41;96039.09;;;11.62;99.37
9525;BME280;15940;48.734;9.112;2023-05-10T03:41:08;96048.22;;;11.65;99.10
9525;BME280;15940;48.734;9.112;2023-05-10T03:43:35;96039.06;;;11.68;99.42
9525;BME280;15940;48.734;9.112;2023-05-10T03:46:04;96042.75;;;11.70;99.81
9525;BME280;15940;48.734;9.112;2023-05-10T03:48:32;96042.72;;;11.76;100.00
9525;BME280;15940;48.734;9.112;2023-05-10T03:50:59;96047.38;;;11.81;100.00
9525;BME280;15940;48.734;9.112;2023-05-10T03:53:26;96051.59;;;11.77;99.20
9525;BME280;15940;48.734;9.112;2023-05-10T03:55:53;96055.81;;;11.72;99.12
9525;BME280;15940;48.734;9.112;2023-05-10T03:58:20;96065.19;;;11.71;99.54
9525;BME280;15940;48.734;9.112;2023-05-10T04:00:47;96062.03;;;11.67;99.27
9525;BME280;15940;48.734;9.112;2023-05-10T04:03:15;96059.56;;;11.63;98.71
9525;BME280;15940;48.734;9.112;2023-05-10T04:05:42;96059.53;;;11.69;100.00
9525;BME280;15940;48.734;9.112;2023-05-10T04:08:09;96052.13;;;11.69;99.90
9525;BME280;15940;48.734;9.112;2023-05-10T04:10:36;96049.97;;;11.62;99.23
9525;BME280;15940;48.734;9.112;2023-05-10T04:13:03;96048.72;;;11.63;99.67
9525;BME280;15940;48.734;9.112;2023-05-10T04:15:30;96052.22;;;11.58;98.92
9525;BME280;15940;48.734;9.112;2023-05-10T04:17:57;96053.94;;;11.56;98.96
9525;BME280;15940;48.734;9.112;2023-05-10T04:20:25;96059.34;;;11.61;99.53
9525;BME280;15940;48.734;9.112;2023-05-10T04:22:52;96058.31;;;11.64;99.49
9525;BME280;15940;48.734;9.112;2023-05-10T04:25:19;96056.13;;;11.63;99.76
9525;BME280;15940;48.734;9.112;2023-05-10T04:27:46;96065.28;;;11.60;100.00
9525;BME280;15940;48.734;9.112;2023-05-10T04:30:13;96061.34;;;11.55;99.65
9525;BME280;15940;48.734;9.112;2023-05-10T04:32:40;96063.56;;;11.57;100.00
9525;BME280;15940;48.734;9.112;2023-05-10T04:35:08;96065.28;;;11.60;99.74
9525;BME280;15940;48.734;9.112;2023-05-10T04:37:37;96064.53;;;11.59;100.00
9525;BME280;15940;48.734;9.112;2023-05-10T04:40:05;96072.63;;;11.65;100.00
9525;BME280;15940;48.734;9.112;2023-05-10T04:42:32;96065.47;;;11.67;100.00
9525;BME280;15940;48.734;9.112;2023-05-10T04:44:59;96069.13;;;11.70;99.49
9525;BME280;15940;48.734;9.112;2023-05-10T04:47:26;96068.41;;;11.69;99.64
9525;BME280;15940;48.734;9.112;2023-05-10T04:49:53;96068.84;;;11.73;99.84
9525;BME280;15940;48.734;9.112;2023-05-10T04:52:20;96074.53;;;11.76;100.00
9525;BME280;15940;48.734;9.112;2023-05-10T04:54:48;96074.25;;;11.79;99.82
9525;BME280;15940;48.734;9.112;2023-05-10T04:57:16;96075.75;;;11.80;100.00
9525;BME280;15940;48.734;9.112;2023-05-10T04:59:43;96078.19;;;11.84;99.91
9525;BME280;15940;48.734;9.112;2023-05-10T05:02:10;96081.94;;;11.75;98.44
9525;BME280;15940;48.734;9.112;2023-05-10T05:04:37;96073.81;;;11.75;98.87
9525;BME280;15940;48.734;9.112;2023-05-10T05:07:04;96080.91;;;11.78;99.01
9525;BME280;15940;48.734;9.112;2023-05-10T05:09:30;96084.38;;;11.79;98.92
9525;BME280;15940;48.734;9.112;2023-05-10T05:11:59;96071.53;;;11.85;99.15
9525;BME280;15940;48.734;9.112;2023-05-10T05:14:26;96081.38;;;11.88;98.51
9525;BME280;15940;48.734;9.112;2023-05-10T05:16:53;96079.09;;;11.92;98.51
9525;BME280;15940;48.734;9.112;2023-05-10T05:19:21;96085.50;;;11.94;98.43
9525;BME280;15940;48.734;9.112;2023-05-10T05:21:48;96083.75;;;11.97;98.61
9525;BME280;15940;48.734;9.112;2023-05-10T05:24:15;96092.81;;;12.05;98.51
9525;BME280;15940;48.734;9.112;2023-05-10T05:26:42;96088.13;;;12.06;98.68
9525;BME280;15940;48.734;9.112;2023-05-10T05:29:10;96087.59;;;12.07;98.62
9525;BME280;15940;48.734;9.112;2023-05-10T05:31:37;96088.13;;;12.06;98.66
9525;BME280;15940;48.734;9.112;2023-05-10T05:34:04;96093.56;;;12.06;98.16
9525;BME280;15940;48.734;9.112;2023-05-10T05:36:31;96091.50;;;12.12;98.50
9525;BME280;15940;48.734;9.112;2023-05-10T05:38:58;96097.22;;;12.08;98.34
9525;BME280;15940;48.734;9.112;2023-05-10T05:41:25;96106.63;;;12.07;97.90
9525;BME280;15940;48.734;9.112;2023-05-10T05:43:52;96104.59;;;12.13;98.71
9525;BME280;15940;48.734;9.112;2023-05-10T05:46:20;96107.75;;;12.17;98.21
9525;BME280;15940;48.734;9.112;2023-05-10T05:48:47;96112.16;;;12.20;97.58
9525;BME280;15940;48.734;9.112;2023-05-10T05:51:14;96106.22;;;12.22;98.03
9525;BME280;15940;48.734;9.112;2023-05-10T05:53:41;96113.81;;;12.29;97.50
9525;BME280;15940;48.734;9.112;2023-05-10T05:56:07;96111.56;;;12.33;97.72
9525;BME280;15940;48.734;9.112;2023-05-10T05:58:35;96113.25;;;12.36;97.28
9525;BME280;15940;48.734;9.112;2023-05-10T06:01:02;96118.69;;;12.36;96.71
9525;BME280;15940;48.734;9.112;2023-05-10T06:03:30;96108.25;;;12.40;98.12
9525;BME280;15940;48.734;9.112;2023-05-10T06:05:58;96114.38;;;12.46;97.08
9525;BME280;15940;48.734;9.112;2023-05-10T06:08:25;96116.53;;;12.53;97.18
9525;BME280;15940;48.734;9.112;2023-05-10T06:10:52;96122.25;;;12.50;96.47
9525;BME280;15940;48.734;9.112;2023-05-10T06:13:19;96125.69;;;12.50;96.38
9525;BME280;15940;48.734;9.112;2023-05-10T06:15:46;96128.25;;;12.43;95.26
9525;BME280;15940;48.734;9.112;2023-05-10T06:18:13;96130.41;;;12.50;95.84
9525;BME280;15940;48.734;9.112;2023-05-10T06:20:42;96137.81;;;12.49;95.58
9525;BME280;15940;48.734;9.112;2023-05-10T06:23:09;96131.81;;;12.56;97.06
9525;BME280;15940;48.734;9.112;2023-05-10T06:25:36;96131.53;;;12.60;96.56
9525;BME280;15940;48.734;9.112;2023-05-10T06:28:03;96128.03;;;12.65;96.17
9525;BME280;15940;48.734;9.112;2023-05-10T06:30:30;96135.97;;;12.63;96.23
9525;BME280;15940;48.734;9.112;2023-05-10T06:32:57;96139.91;;;12.62;95.80
9525;BME280;15940;48.734;9.112;2023-05-10T06:35:24;96140.88;;;12.65;96.13
9525;BME280;15940;48.734;9.112;2023-05-10T06:37:52;96140.88;;;12.65;96.21
9525;BME280;15940;48.734;9.112;2023-05-10T06:40:19;96148.00;;;12.68;96.04
9525;BME280;15940;48.734;9.112;2023-05-10T06:42:46;96149.25;;;12.67;96.03
9525;BME280;15940;48.734;9.112;2023-05-10T06:45:14;96148.06;;;12.62;95.87
9525;BME280;15940;48.734;9.112;2023-05-10T06:47:41;96145.34;;;12.62;96.17
9525;BME280;15940;48.734;9.112;2023-05-10T06:50:09;96145.06;;;12.66;95.38
9525;BME280;15940;48.734;9.112;2023-05-10T06:52:37;96151.00;;;12.64;95.30
9525;BME280;15940;48.734;9.112;2023-05-10T06:55:06;96146.09;;;12.63;95.53
9525;BME280;15940;48.734;9.112;2023-05-10T06:57:34;96149.97;;;12.67;95.46
9525;BME280;15940;48.734;9.112;2023-05-10T07:00:01;96149.72;;;12.71;95.05
9525;BME280;15940;48.734;9.112;2023-05-10T07:02:29;96144.78;;;12.69;93.49
9525;BME280;15940;48.734;9.112;2023-05-10T07:04:56;96144.31;;;12.65;94.57
9525;BME280;15940;48.734;9.112;2023-05-10T07:07:23;96150.66;;;12.73;94.98
9525;BME280;15940;48.734;9.112;2023-05-10T07:09:50;96152.75;;;12.86;94.60
9525;BME280;15940;48.734;9.112;2023-05-10T07:12:18;96146.56;;;12.85;92.96
9525;BME280;15940;48.734;9.112;2023-05-10T07:14:45;96150.19;;;12.94;93.76
9525;BME280;15940;48.734;9.112;2023-05-10T07:17:12;96152.88;;;12.99;92.58
9525;BME280;15940;48.734;9.112;2023-05-10T07:19:39;96157.44;;;13.10;93.01
9525;BME280;15940;48.734;9.112;2023-05-10T07:22:06;96153.34;;;13.22;92.47
9525;BME280;15940;48.734;9.112;2023-05-10T07:24:33;96156.75;;;13.28;91.46
9525;BME280;15940;48.734;9.112;2023-05-10T07:27:00;96149.00;;;13.32;90.46
9525;BME280;15940;48.734;9.112;2023-05-10T07:29:28;96155.66;;;13.37;90.66
9525;BME280;15940;48.734;9.112;2023-05-10T07:31:55;96153.06;;;13.44;90.93
9525;BME280;15940;48.734;9.112;2023-05-10T07:34:22;96153.94;;;13.53;90.30
9525;BME280;15940;48.734;9.112;2023-05-10T07:39:04;96155.91;;;13.52;89.39
9525;BME280;15940;48.734;9.112;2023-05-10T07:41:31;96156.06;;;13.60;90.04
9525;BME280;15940;48.734;9.112;2023-05-10T07:43:58;96155.03;;;13.63;90.17
9525;BME280;15940;48.734;9.112;2023-05-10T07:46:25;96162.78;;;13.59;89.95
9525;BME280;15940;48.734;9.112;2023-05-10T07:48:52;96164.81;;;13.53;87.35
9525;BME280;15940;48.734;9.112;2023-05-10T07:51:19;96165.03;;;13.55;87.80
9525;BME280;15940;48.734;9.112;2023-05-10T07:53:46;96171.59;;;13.46;88.33
9525;BME280;15940;48.734;9.112;2023-05-10T07:56:25;96167.31;;;13.51;87.52
9525;BME280;15940;48.734;9.112;2023-05-10T07:58:53;96164.38;;;13.49;87.64
9525;BME280;15940;48.734;9.112;2023-05-10T08:01:21;96174.59;;;13.42;86.29
9525;BME280;15940;48.734;9.112;2023-05-10T08:03:48;96173.28;;;13.49;87.67
9525;BME280;15940;48.734;9.112;2023-05-10T08:06:17;96166.00;;;13.57;87.49
9525;BME280;15940;48.734;9.112;2023-05-10T08:08:45;96165.03;;;13.55;85.72
9525;BME280;15940;48.734;9.112;2023-05-10T08:11:16;96168.13;;;13.64;87.39
9525;BME280;15940;48.734;9.112;2023-05-10T08:13:44;96169.72;;;13.73;87.71
9525;BME280;15940;48.734;9.112;2023-05-10T08:16:11;96160.25;;;13.80;88.10
9525;BME280;15940;48.734;9.112;2023-05-10T08:18:39;96168.09;;;13.83;86.46
9525;BME280;15940;48.734;9.112;2023-05-10T08:21:06;96182.22;;;13.82;83.94
9525;BME280;15940;48.734;9.112;2023-05-10T08:23:33;96166.94;;;13.79;85.36
9525;BME280;15940;48.734;9.112;2023-05-10T08:26:00;96183.41;;;13.86;84.23
9525;BME280;15940;48.734;9.112;2023-05-10T08:28:27;96186.50;;;13.77;85.03
9525;BME280;15940;48.734;9.112;2023-05-10T08:30:56;96175.25;;;13.86;84.04
9525;BME280;15940;48.734;9.112;2023-05-10T08:33:22;96178.72;;;13.87;84.36
9525;BME280;15940;48.734;9.112;2023-05-10T08:35:49;96180.59;;;13.92;83.74
9525;BME280;15940;48.734;9.112;2023-05-10T08:38:17;96186.34;;;13.88;80.60
9525;BME280;15940;48.734;9.112;2023-05-10T08:40:44;96192.75;;;13.91;83.32
9525;BME280;15940;48.734;9.112;2023-05-10T08:43:13;96187.13;;;14.02;83.36
9525;BME280;15940;48.734;9.112;2023-05-10T08:45:43;96184.84;;;14.06;83.04
9525;BME280;15940;48.734;9.112;2023-05-10T08:48:12;96187.19;;;14.15;81.98
9525;BME280;15940;48.734;9.112;2023-05-10T08:50:40;96182.16;;;14.19;81.93
9525;BME280;15940;48.734;9.112;2023-05-10T08:53:10;96182.91;;;14.20;80.54
9525;BME280;15940;48.734;9.112;2023-05-10T08:55:39;96186.81;;;14.24;82.14
9525;BME280;15940;48.734;9.112;2023-05-10T08:58:08;96188.53;;;14.09;77.71
9525;BME280;15940;48.734;9.112;2023-05-10T09:00:36;96193.22;;;14.08;81.56
9525;BME280;15940;48.734;9.112;2023-05-10T09:03:05;96194.75;;;14.22;82.29
9525;BME280;15940;48.734;9.112;2023-05-10T09:05:34;96201.28;;;14.33;79.55
9525;BME280;15940;48.734;9.112;2023-05-10T09:08:02;96200.06;;;14.47;80.27
9525;BME280;15940;48.734;9.112;2023-05-10T09:10:30;96201.09;;;14.44;79.79
9525;BME280;15940;48.734;9.112;2023-05-10T09:12:58;96200.94;;;14.55;79.97
9525;BME280;15940;48.734;9.112;2023-05-10T09:15:26;96205.88;;;14.56;80.86
9525;BME280;15940;48.734;9.112;2023-05-10T09:17:53;96204.78;;;14.46;78.30
9525;BME280;15940;48.734;9.112;2023-05-10T09:20:20;96217.84;;;14.35;77.84
9525;BME280;15940;48.734;9.112;2023-05-10T09:22:49;96216.63;;;14.17;78.56
9525;BME280;15940;48.734;9.112;2023-05-10T09:27:36;96210.91;;;13.83;76.38
9525;BME280;15940;48.734;9.112;2023-05-10T09:30:05;96214.69;;;13.80;78.76
9525;BME280;15940;48.734;9.112;2023-05-10T09:32:39;96210.56;;;13.73;77.03
9525;BME280;15940;48.734;9.112;2023-05-10T09:35:08;96212.47;;;13.78;79.37
9525;BME280;15940;48.734;9.112;2023-05-10T09:37:35;96213.44;;;13.81;79.18
9525;BME280;15940;48.734;9.112;2023-05-10T09:40:06;96214.97;;;13.95;78.06
9525;BME280;15940;48.734;9.112;2023-05-10T09:42:35;96213.38;;;14.18;78.30
9525;BME280;15940;48.734;9.112;2023-05-10T09:45:03;96221.06;;;14.52;77.92
9525;BME280;15940;48.734;9.112;2023-05-10T09:47:32;96217.13;;;14.79;76.34
9525;BME280;15940;48.734;9.112;2023-05-10T09:50:00;96222.59;;;14.93;75.04
9525;BME280;15940;48.734;9.112;2023-05-10T09:52:30;96204.47;;;15.08;74.73
9525;BME280;15940;48.734;9.112;2023-05-10T09:54:57;96213.66;;;15.05;72.92
9525;BME280;15940;48.734;9.112;2023-05-10T09:57:25;96217.88;;;15.06;71.66
9525;BME280;15940;48.734;9.112;2023-05-10T09:59:53;96210.00;;;15.29;75.48
9525;BME280;15940;48.734;9.112;2023-05-10T10:02:21;96211.13;;;15.47;73.38
9525;BME280;15940;48.734;9.112;2023-05-10T10:04:55;96212.69;;;15.56;70.44
9525;BME280;15940;48.734;9.112;2023-05-10T10:07:24;96214.16;;;15.43;71.43
9525;BME280;15940;48.734;9.112;2023-05-10T10:09:52;96215.56;;;15.37;70.27
9525;BME280;15940;48.734;9.112;2023-05-10T10:12:19;96217.22;;;15.40;71.22
9525;BME280;15940;48.734;9.112;2023-05-10T10:14:47;96214.09;;;15.23;70.99
9525;BME280;15940;48.734;9.112;2023-05-10T10:17:17;96210.31;;;15.12;70.84
9525;BME280;15940;48.734;9.112;2023-05-10T10:19:47;96205.91;;;14.96;68.83
9525;BME280;15940;48.734;9.112;2023-05-10T10:22:14;96208.13;;;14.98;73.50
9525;BME280;15940;48.734;9.112;2023-05-10T10:24:41;96206.53;;;15.02;71.59
9525;BME280;15940;48.734;9.112;2023-05-10T10:27:21;96208.53;;;15.15;71.42
9525;BME280;15940;48.734;9.112;2023-05-10T10:30:00;96213.47;;;15.17;70.87
9525;BME280;15940;48.734;9.112;2023-05-10T10:32:42;96215.34;;;15.35;72.44
9525;BME280;15940;48.734;9.112;2023-05-10T10:35:15;96206.66;;;15.36;69.17
9525;BME280;15940;48.734;9.112;2023-05-10T10:37:47;96212.09;;;15.36;66.98
9525;BME280;15940;48.734;9.112;2023-05-10T10:40:27;96203.69;;;15.48;66.61
9525;BME280;15940;48.734;9.112;2023-05-10T10:42:55;96209.25;;;15.42;66.30
9525;BME280;15940;48.734;9.112;2023-05-10T10:45:23;96216.41;;;15.45;67.08
9525;BME280;15940;48.734;9.112;2023-05-10T10:48:21;96209.75;;;15.54;66.96
9525;BME280;15940;48.734;9.112;2023-05-10T10:50:56;96231.50;;;15.33;71.19
9525;BME280;15940;48.734;9.112;2023-05-10T10:53:26;96223.00;;;14.70;68.75
9525;BME280;15940;48.734;9.112;2023-05-10T10:56:05;96234.88;;;14.22;69.90
9525;BME280;15940;48.734;9.112;2023-05-10T10:58:35;96225.69;;;14.06;72.09
9525;BME280;15940;48.734;9.112;2023-05-10T11:01:11;96229.75;;;13.99;73.07
9525;BME280;15940;48.734;9.112;2023-05-10T11:03:40;96237.41;;;14.01;72.97
9525;BME280;15940;48.734;9.112;2023-05-10T11:06:07;96229.69;;;14.37;74.31
9525;BME280;15940;48.734;9.112;2023-05-10T11:08:41;96225.69;;;14.38;66.96
9525;BME280;15940;48.734;9.112;2023-05-10T11:11:09;96234.31;;;14.42;69.58
9525;BME280;15940;48.734;9.112;2023-05-10T11:13:42;96232.63;;;14.39;69.07
9525;BME280;15940;48.734;9.112;2023-05-10T11:16:18;96231.47;;;14.35;69.87
9525;BME280;15940;48.734;9.112;2023-05-10T11:18:59;96236.84;;;14.40;68.13
9525;BME280;15940;48.734;9.112;2023-05-10T11:21:27;96240.78;;;14.39;67.21
9525;BME280;15940;48.734;9.112;2023-05-10T11:23:56;96229.41;;;14.41;69.93
9525;BME280;15940;48.734;9.112;2023-05-10T11:26:25;96235.94;;;14.51;69.97
9525;BME280;15940;48.734;9.112;2023-05-10T11:28:53;96240.66;;;14.50;70.16
9525;BME280;15940;48.734;9.112;2023-05-10T11:31:22;96233.88;;;14.38;68.73
9525;BME280;15940;48.734;9.112;2023-05-10T11:33:53;96235.88;;;14.38;70.28
9525;BME280;15940;48.734;9.112;2023-05-10T11:36:25;96238.16;;;14.34;69.56
9525;BME280;15940;48.734;9.112;2023-05-10T11:38:53;96239.72;;;14.29;69.75
9525;BME280;15940;48.734;9.112;2023-05-10T11:41:22;96245.78;;;14.22;68.62
9525;BME280;15940;48.734;9.112;2023-05-10T11:43:51;96243.56;;;14.01;68.51
9525;BME280;15940;48.734;9.112;2023-05-10T11:46:20;96245.72;;;13.90;68.86
9525;BME280;15940;48.734;9.112;2023-05-10T11:48:49;96251.91;;;13.90;71.16
9525;BME280;15940;48.734;9.112;2023-05-10T11:51:21;96257.94;;;13.83;70.18
9525;BME280;15940;48.734;9.112;2023-05-10T11:53:50;96257.44;;;13.85;70.64
9525;BME280;15940;48.734;9.112;2023-05-10T11:56:17;96253.53;;;13.99;71.65
9525;BME280;15940;48.734;9.112;2023-05-10T11:58:44;96258.38;;;14.06;69.84
9525;BME280;15940;48.734;9.112;2023-05-10T12:01:12;96262.56;;;14.26;72.08
9525;BME280;15940;48.734;9.112;2023-05-10T12:03:40;96268.56;;;14.56;71.12
9525;BME280;15940;48.734;9.112;2023-05-10T12:06:07;96254.25;;;14.96;69.84
9525;BME280;15940;48.734;9.112;2023-05-10T12:08:36;96257.75;;;15.23;68.37
9525;BME280;15940;48.734;9.112;2023-05-10T12:11:08;96267.19;;;15.35;68.65
9525;BME280;15940;48.734;9.112;2023-05-10T12:13:38;96261.22;;;15.36;63.91
9525;BME280;15940;48.734;9.112;2023-05-10T12:16:13;96273.28;;;15.54;65.32
9525;BME280;15940;48.734;9.112;2023-05-10T12:18:41;96271.59;;;15.38;64.43
9525;BME280;15940;48.734;9.112;2023-05-10T12:21:10;96268.44;;;15.34;66.46
9525;BME280;15940;48.734;9.112;2023-05-10T12:23:39;96269.19;;;15.34;68.12
9525;BME280;15940;48.734;9.112;2023-05-10T12:26:08;96264.91;;;15.26;67.18
9525;BME280;15940;48.734;9.112;2023-05-10T12:28:36;96272.44;;;15.20;68.66
9525;BME280;15940;48.734;9.112;2023-05-10T12:31:05;96270.13;;;15.24;68.73
9525;BME280;15940;48.734;9.112;2023-05-10T12:33:36;96277.47;;;15.15;66.36
9525;BME280;15940;48.734;9.112;2023-05-10T12:36:08;96274.63;;;14.95;67.16
9525;BME280;15940;48.734;9.112;2023-05-10T12:38:36;96269.34;;;14.83;68.67
9525;BME280;15940;48.734;9.112;2023-05-10T12:41:07;96275.97;;;14.88;68.34
9525;BME280;15940;48.734;9.112;2023-05-10T12:43:35;96277.50;;;14.70;68.40
9525;BME280;15940;48.734;9.112;2023-05-10T12:46:06;96276.72;;;14.56;69.24
9525;BME280;15940;48.734;9.112;2023-05-10T12:48:34;96279.56;;;14.32;68.18
9525;BME280;15940;48.734;9.112;2023-05-10T12:51:01;96279.59;;;14.13;69.28
9525;BME280;15940;48.734;9.112;2023-05-10T12:53:28;96288.03;;;14.10;70.06
9525;BME280;15940;48.734;9.112;2023-05-10T12:55:55;96287.97;;;14.15;71.79
9525;BME280;15940;48.734;9.112;2023-05-10T12:58:24;96281.34;;;14.11;71.28
9525;BME280;15940;48.734;9.112;2023-05-10T13:00:51;96276.97;;;14.21;71.72
9525;BME280;15940;48.734;9.112;2023-05-10T13:03:18;96276.59;;;14.30;72.59
9525;BME280;15940;48.734;9.112;2023-05-10T13:05:45;96276.09;;;14.50;71.13
9525;BME280;15940;48.734;9.112;2023-05-10T13:08:12;96272.28;;;14.72;68.94
9525;BME280;15940;48.734;9.112;2023-05-10T13:10:39;96273.25;;;14.88;71.54
9525;BME280;15940;48.734;9.112;2023-05-10T13:13:06;96265.81;;;15.02;67.43
9525;BME280;15940;48.734;9.112;2023-05-10T13:15:35;96270.34;;;15.12;65.30
9525;BME280;15940;48.734;9.112;2023-05-10T13:18:02;96263.72;;;15.21;68.32
9525;BME280;15940;48.734;9.112;2023-05-10T13:20:29;96266.69;;;15.36;63.90
9525;BME280;15940;48.734;9.112;2023-05-10T13:22:56;96270.66;;;15.49;62.77
9525;BME280;15940;48.734;9.112;2023-05-10T13:25:23;96269.50;;;15.57;66.43
9525;BME280;15940;48.734;9.112;2023-05-10T13:27:50;96263.63;;;15.66;65.27